createdAt,value
2022-10-31T00:01:18.012Z,99957.16
2022-10-31T00:03:44.922Z,99962.56
2022-10-31T00:06:11.803Z,99966.25
2022-10-31T00:08:38.710Z,99965.69
2022-10-31T00:11:10.063Z,99971.00
2022-10-31T00:13:37.562Z,99969.97
2022-10-31T00:16:04.640Z,99969.16
2022-10-31T00:18:31.483Z,99972.31
2022-10-31T00:21:02.933Z,99970.97
2022-10-31T00:23:30.560Z,99970.66
2022-10-31T00:26:02.913Z,99972.16
2022-10-31T00:28:30.458Z,99969.31
2022-10-31T00:31:02.516Z,99973.84
2022-10-31T00:33:29.542Z,99977.88
2022-10-31T00:35:56.604Z,99975.56
2022-10-31T00:38:24.082Z,99978.78
2022-10-31T00:40:50.868Z,99973.31
2022-10-31T00:43:18.711Z,99974.41
2022-10-31T00:45:45.742Z,99976.25
2022-10-31T00:48:12.702Z,99984.97
2022-10-31T00:50:40.883Z,99982.69
2022-10-31T00:53:07.840Z,99984.28
2022-10-31T00:55:34.941Z,99987.19
2022-10-31T00:58:02.127Z,99983.56
2022-10-31T01:00:29.398Z,99978.28
2022-10-31T01:02:56.977Z,99978.84
2022-10-31T01:05:24.074Z,99973.06
2022-10-31T01:07:50.983Z,99973.06
2022-10-31T01:10:18.003Z,99980.72
2022-10-31T01:12:47.487Z,99979.94
2022-10-31T01:15:17.693Z,99981.78
2022-10-31T01:17:44.557Z,99972.13
2022-10-31T01:20:14.113Z,99973.66
2022-10-31T01:22:40.976Z,99969.75
2022-10-31T01:25:09.575Z,99969.75
2022-10-31T01:27:36.550Z,99970.25
2022-10-31T01:30:04.554Z,99967.63
2022-10-31T01:32:31.338Z,99964.72
2022-10-31T01:34:59.058Z,99965.25
2022-10-31T01:37:26.047Z,99972.34
2022-10-31T01:39:52.805Z,99969.44
2022-10-31T01:42:22.178Z,99969.94
2022-10-31T01:45:01.386Z,99974.13
2022-10-31T01:47:54.837Z,99961.50
2022-10-31T01:50:38.984Z,99967.56
2022-10-31T01:53:09.499Z,99960.16
2022-10-31T01:55:42.667Z,99958.81
2022-10-31T01:58:24.022Z,99969.34
2022-10-31T02:00:56.602Z,99971.72
2022-10-31T02:03:25.207Z,99969.84
2022-10-31T02:05:55.456Z,99974.81
2022-10-31T02:08:34.557Z,99963.53
2022-10-31T02:11:02.368Z,99968.00
2022-10-31T02:13:30.456Z,99963.00
2022-10-31T02:15:59.860Z,99965.63
2022-10-31T02:18:32.088Z,99967.00
2022-10-31T02:21:12.925Z,99960.97
2022-10-31T02:23:50.444Z,99951.22
2022-10-31T02:26:36.987Z,99959.38
2022-10-31T02:29:23.170Z,99960.44
2022-10-31T02:31:59.107Z,99964.13
2022-10-31T02:34:48.946Z,99962.00
2022-10-31T02:37:40.419Z,99965.47
2022-10-31T02:40:22.958Z,99961.06
2022-10-31T02:43:28.602Z,99972.91
2022-10-31T02:46:20.231Z,99960.06
2022-10-31T02:48:49.446Z,99962.75
2022-10-31T02:51:17.707Z,99959.09
2022-10-31T02:53:44.672Z,99955.19
2022-10-31T02:56:17.500Z,99966.25
2022-10-31T02:58:58.548Z,99958.91
2022-10-31T03:01:32.859Z,99960.50
2022-10-31T03:04:28.170Z,99953.16
2022-10-31T03:07:34.656Z,99960.53
2022-10-31T03:10:18.476Z,99958.75
2022-10-31T03:13:19.114Z,99955.31
2022-10-31T03:15:55.411Z,99962.94
2022-10-31T03:18:34.077Z,99969.78
2022-10-31T03:21:14.179Z,99971.38
2022-10-31T03:23:44.662Z,99968.22
2022-10-31T03:26:22.350Z,99977.97
2022-10-31T03:29:03.980Z,99974.53
2022-10-31T03:31:35.133Z,99973.47
2022-10-31T03:34:04.272Z,99977.19
2022-10-31T03:36:34.461Z,99987.94
2022-10-31T03:39:05.561Z,99984.28
2022-10-31T03:41:40.071Z,99978.22
2022-10-31T03:44:14.228Z,99979.81
2022-10-31T03:46:43.791Z,99980.28
2022-10-31T03:49:11.821Z,99980.03
2022-10-31T03:51:41.602Z,99980.28
2022-10-31T03:54:16.833Z,99978.75
2022-10-31T03:56:56.244Z,99977.44
2022-10-31T03:59:46.231Z,99970.91
2022-10-31T04:02:19.703Z,99979.31
2022-10-31T04:04:49.673Z,99975.09
2022-10-31T04:07:18.655Z,99980.09
2022-10-31T04:09:47.632Z,99976.69
2022-10-31T04:12:16.670Z,99979.81
2022-10-31T04:14:50.297Z,99977.19
2022-10-31T04:17:21.230Z,99981.66
2022-10-31T04:19:48.691Z,99993.25
2022-10-31T04:22:15.662Z,99990.88
2022-10-31T04:24:42.525Z,99994.81
2022-10-31T04:27:13.589Z,99989.56
2022-10-31T04:29:40.616Z,99998.75
2022-10-31T04:32:08.963Z,99992.69
2022-10-31T04:34:35.879Z,99997.97
2022-10-31T04:37:02.606Z,99995.03
2022-10-31T04:39:30.145Z,99994.78
2022-10-31T04:42:17.243Z,99992.94
2022-10-31T04:44:44.740Z,99995.56
2022-10-31T04:47:11.585Z,99991.63
2022-10-31T04:49:38.427Z,99995.31
2022-10-31T04:52:05.719Z,99993.75
2022-10-31T04:54:33.657Z,100003.22
2022-10-31T04:57:47.447Z,99996.09
2022-10-31T05:00:18.118Z,100004.00
2022-10-31T05:02:49.407Z,100004.50
2022-10-31T05:05:17.978Z,100005.84
2022-10-31T05:07:46.860Z,99999.81
2022-10-31T05:10:17.261Z,100000.28
2022-10-31T05:13:11.176Z,100003.47
2022-10-31T05:15:57.038Z,99999.81
2022-10-31T05:18:50.155Z,100006.38
2022-10-31T05:21:40.156Z,100004.03
2022-10-31T05:24:08.573Z,100008.78
2022-10-31T05:26:36.358Z,100005.13
2022-10-31T05:29:03.309Z,100011.41
2022-10-31T05:31:30.338Z,100012.47
2022-10-31T05:33:57.308Z,100017.47
2022-10-31T05:36:26.869Z,100010.09
2022-10-31T05:39:03.831Z,100009.31
2022-10-31T05:41:41.505Z,100011.94
2022-10-31T05:44:23.098Z,100014.56
2022-10-31T05:47:08.379Z,100013.22
2022-10-31T05:49:55.480Z,100011.38
2022-10-31T05:52:37.773Z,100016.34
2022-10-31T05:55:34.108Z,100018.72
2022-10-31T05:58:18.371Z,100015.56
2022-10-31T06:01:00.029Z,100013.47
2022-10-31T06:03:27.265Z,100025.03
2022-10-31T06:05:56.693Z,100026.09
2022-10-31T06:08:26.830Z,100027.66
2022-10-31T06:10:55.600Z,100025.31
2022-10-31T06:13:42.293Z,100026.13
2022-10-31T06:16:18.411Z,100035.03
2022-10-31T06:18:47.588Z,100031.91
2022-10-31T06:21:17.887Z,100031.13
2022-10-31T06:23:46.580Z,100040.06
2022-10-31T06:26:35.493Z,100040.88
2022-10-31T06:29:04.307Z,100044.28
2022-10-31T06:31:54.671Z,100045.53
2022-10-31T06:34:21.565Z,100041.34
2022-10-31T06:36:48.598Z,100040.28
2022-10-31T06:39:16.645Z,100046.06
2022-10-31T06:41:43.676Z,100045.53
2022-10-31T06:44:11.191Z,100049.22
2022-10-31T06:46:56.614Z,100047.63
2022-10-31T06:49:42.105Z,100050.00
2022-10-31T06:52:15.259Z,100043.16
2022-10-31T06:54:42.092Z,100045.00
2022-10-31T06:57:09.423Z,100054.72
2022-10-31T06:59:38.507Z,100050.25
2022-10-31T07:02:18.464Z,100057.38
2022-10-31T07:04:45.381Z,100061.31
2022-10-31T07:07:17.150Z,100049.72
2022-10-31T07:09:45.198Z,100063.38
2022-10-31T07:12:16.672Z,100061.25
2022-10-31T07:14:51.840Z,100065.97
2022-10-31T07:17:18.634Z,100069.66
2022-10-31T07:19:45.563Z,100070.41
2022-10-31T07:22:15.960Z,100067.53
2022-10-31T07:24:44.524Z,100061.22
2022-10-31T07:27:46.293Z,100066.22
2022-10-31T07:30:14.792Z,100068.28
2022-10-31T07:32:47.906Z,100055.66
2022-10-31T07:35:22.300Z,100061.69
2022-10-31T07:37:57.287Z,100066.41
2022-10-31T07:40:25.601Z,100065.88
2022-10-31T07:42:54.307Z,100064.03
2022-10-31T07:45:53.260Z,100071.38
2022-10-31T07:48:38.442Z,100067.16
2022-10-31T07:51:23.698Z,100072.66
2022-10-31T07:54:08.826Z,100073.94
2022-10-31T07:56:35.696Z,100073.16
2022-10-31T07:59:02.416Z,100071.84
2022-10-31T08:01:29.969Z,100071.06
2022-10-31T08:04:16.748Z,100077.63
2022-10-31T08:07:02.168Z,100071.03
2022-10-31T08:09:34.824Z,100071.03
2022-10-31T08:12:06.945Z,100073.09
2022-10-31T08:14:35.820Z,100073.34
2022-10-31T08:17:02.711Z,100077.28
2022-10-31T08:19:39.482Z,100073.56
2022-10-31T08:22:06.342Z,100075.44
2022-10-31T08:24:33.160Z,100064.63
2022-10-31T08:27:00.754Z,100069.34
2022-10-31T08:29:27.579Z,100065.94
2022-10-31T08:31:54.462Z,100066.16
2022-10-31T08:34:53.370Z,100060.66
2022-10-31T08:37:40.385Z,100062.69
2022-10-31T08:40:08.641Z,100062.94
2022-10-31T08:42:35.860Z,100062.38
2022-10-31T08:45:03.312Z,100059.50
2022-10-31T08:47:32.492Z,100052.09
2022-10-31T08:49:59.590Z,100057.09
2022-10-31T08:52:51.081Z,100056.31
2022-10-31T08:55:13.514Z,100051.06
2022-10-31T08:57:59.291Z,100060.75
2022-10-31T09:00:36.268Z,100058.63
2022-10-31T09:03:20.362Z,100051.47
2022-10-31T09:05:48.289Z,100054.41
2022-10-31T09:08:17.221Z,100059.06
2022-10-31T09:10:46.958Z,100055.41
2022-10-31T09:13:20.262Z,100060.13
2022-10-31T09:16:16.355Z,100055.34
2022-10-31T09:18:44.444Z,100059.06
2022-10-31T09:21:11.202Z,100068.25
2022-10-31T09:23:38.154Z,100066.41
2022-10-31T09:26:05.146Z,100064.00
2022-10-31T09:28:41.552Z,100066.06
2022-10-31T09:31:13.919Z,100063.19
2022-10-31T09:33:49.632Z,100062.91
2022-10-31T09:36:42.652Z,100066.63
2022-10-31T09:39:17.511Z,100060.84
2022-10-31T09:42:27.515Z,100062.13
2022-10-31T09:45:03.652Z,100067.13
2022-10-31T09:47:58.875Z,100055.81
2022-10-31T09:50:46.964Z,100059.47
2022-10-31T09:53:50.466Z,100064.72
2022-10-31T09:56:23.942Z,100059.16
2022-10-31T09:58:58.145Z,100059.38
2022-10-31T10:01:31.444Z,100062.56
2022-10-31T10:04:06.629Z,100060.94
2022-10-31T10:06:55.666Z,100058.31
2022-10-31T10:09:51.676Z,100060.13
2022-10-31T10:12:52.446Z,100056.16
2022-10-31T10:15:37.786Z,100052.72
2022-10-31T10:18:25.872Z,100055.09
2022-10-31T10:21:05.588Z,100052.94
2022-10-31T10:23:55.615Z,100057.44
2022-10-31T10:29:10.126Z,100054.53
2022-10-31T10:31:43.417Z,100055.31
2022-10-31T10:34:21.520Z,100058.44
2022-10-31T10:36:55.928Z,100050.53
2022-10-31T10:39:35.950Z,100052.13
2022-10-31T10:42:11.839Z,100042.59
2022-10-31T10:44:44.199Z,100041.28
2022-10-31T10:47:11.190Z,100050.72
2022-10-31T10:49:51.611Z,100040.19
2022-10-31T10:52:44.595Z,100034.16
2022-10-31T10:55:47.159Z,100032.78
2022-10-31T10:58:14.098Z,100037.00
2022-10-31T11:00:46.796Z,100030.66
2022-10-31T11:03:15.497Z,100030.09
2022-10-31T11:05:51.082Z,100030.59
2022-10-31T11:08:28.199Z,100031.41
2022-10-31T11:11:18.212Z,100031.09
2022-10-31T11:13:53.667Z,100029.56
2022-10-31T11:16:41.627Z,100024.28
2022-10-31T11:19:17.279Z,100026.91
2022-10-31T11:21:48.464Z,100015.38
2022-10-31T11:24:23.626Z,100017.94
2022-10-31T11:26:52.038Z,100025.91
2022-10-31T11:29:23.281Z,100024.00
2022-10-31T11:31:56.133Z,100019.03
2022-10-31T11:34:37.160Z,100021.91
2022-10-31T11:37:22.170Z,100007.72
2022-10-31T11:39:55.755Z,100006.84
2022-10-31T11:42:39.988Z,99996.53
2022-10-31T11:45:18.185Z,100007.06
2022-10-31T11:47:52.976Z,100002.59
2022-10-31T11:50:33.283Z,99995.75
2022-10-31T11:53:00.249Z,99995.97
2022-10-31T11:55:35.107Z,99997.03
2022-10-31T11:58:03.076Z,99991.19
2022-10-31T12:00:34.421Z,99995.13
2022-10-31T12:03:23.486Z,99995.34
2022-10-31T12:06:01.926Z,99987.94
2022-10-31T12:08:35.104Z,99993.44
2022-10-31T12:11:36.155Z,99988.44
2022-10-31T12:14:15.314Z,99980.03
2022-10-31T12:16:51.335Z,99982.09
2022-10-31T12:19:53.957Z,99979.66
2022-10-31T12:22:43.425Z,99979.88
2022-10-31T12:25:19.377Z,99972.50
2022-10-31T12:27:59.763Z,99972.78
2022-10-31T12:30:57.118Z,99972.78
2022-10-31T12:33:40.403Z,99967.50
2022-10-31T12:36:21.864Z,99970.72
2022-10-31T12:38:48.699Z,99977.25
2022-10-31T12:41:30.426Z,99966.13
2022-10-31T12:44:03.247Z,99968.50
2022-10-31T12:46:39.315Z,99968.50
2022-10-31T12:49:15.727Z,99970.38
2022-10-31T12:52:20.827Z,99965.56
2022-10-31T12:55:08.128Z,99972.91
2022-10-31T12:57:43.956Z,99976.31
2022-10-31T13:00:19.410Z,99968.94
2022-10-31T13:03:18.266Z,99971.06
2022-10-31T13:05:49.739Z,99970.50
2022-10-31T13:08:29.757Z,99964.72
2022-10-31T13:11:17.179Z,99962.88
2022-10-31T13:13:56.757Z,99964.44
2022-10-31T13:16:29.719Z,99958.41
2022-10-31T13:19:35.640Z,99960.94
2022-10-31T13:22:09.824Z,99956.75
2022-10-31T13:24:38.679Z,99960.94
2022-10-31T13:27:16.144Z,99954.38
2022-10-31T13:29:59.739Z,99952.81
2022-10-31T13:32:30.982Z,99947.28
2022-10-31T13:35:00.607Z,99946.22
2022-10-31T13:37:35.594Z,99943.84
2022-10-31T13:40:24.030Z,99947.75
2022-10-31T13:43:19.053Z,99938.09
2022-10-31T13:45:51.898Z,99941.84
2022-10-31T13:48:36.438Z,99944.44
2022-10-31T13:51:10.082Z,99942.63
2022-10-31T13:53:57.229Z,99936.03
2022-10-31T13:56:31.759Z,99946.56
2022-10-31T13:59:12.501Z,99939.94
2022-10-31T14:01:48.544Z,99942.00
2022-10-31T14:04:29.248Z,99944.06
2022-10-31T14:07:11.179Z,99922.19
2022-10-31T14:09:39.898Z,99930.88
2022-10-31T14:12:24.931Z,99931.47
2022-10-31T14:14:56.773Z,99920.44
2022-10-31T14:17:27.530Z,99918.78
2022-10-31T14:20:33.713Z,99922.97
2022-10-31T14:23:13.693Z,99914.06
2022-10-31T14:25:40.745Z,99913.50
2022-10-31T14:28:34.290Z,99910.88
2022-10-31T14:31:02.322Z,99913.81
2022-10-31T14:33:31.805Z,99912.22
2022-10-31T14:36:16.074Z,99909.31
2022-10-31T14:39:07.871Z,99908.25
2022-10-31T14:41:46.812Z,99910.88
2022-10-31T14:44:22.326Z,99905.91
2022-10-31T14:47:09.805Z,99911.94
2022-10-31T14:49:48.335Z,99904.41
2022-10-31T14:52:18.283Z,99905.75
2022-10-31T14:54:50.314Z,99902.91
2022-10-31T14:57:35.270Z,99902.91
2022-10-31T15:00:09.446Z,99906.13
2022-10-31T15:02:56.897Z,99907.75
2022-10-31T15:05:25.063Z,99899.78
2022-10-31T15:07:54.388Z,99902.69
2022-10-31T15:10:28.593Z,99897.44
2022-10-31T15:12:55.519Z,99894.53
2022-10-31T15:15:25.134Z,99897.38
2022-10-31T15:17:59.238Z,99890.25
2022-10-31T15:20:34.167Z,99887.09
2022-10-31T15:23:01.367Z,99891.13
2022-10-31T15:25:34.664Z,99891.38
2022-10-31T15:28:01.860Z,99884.25
2022-10-31T15:30:31.244Z,99883.56
2022-10-31T15:32:59.236Z,99889.06
2022-10-31T15:35:30.398Z,99885.91
2022-10-31T15:38:00.702Z,99887.47
2022-10-31T15:40:28.259Z,99885.91
2022-10-31T15:43:04.278Z,99889.81
2022-10-31T15:45:32.410Z,99881.63
2022-10-31T15:48:02.642Z,99887.41
2022-10-31T15:50:38.978Z,99884.78
2022-10-31T15:53:15.448Z,99883.69
2022-10-31T15:55:59.222Z,99885.84
2022-10-31T15:58:26.887Z,99891.19
2022-10-31T16:01:03.270Z,99890.91
2022-10-31T16:03:32.857Z,99894.09
2022-10-31T16:06:02.521Z,99892.53
2022-10-31T16:08:32.278Z,99891.94
2022-10-31T16:11:16.931Z,99893.34
2022-10-31T16:14:03.088Z,99897.22
2022-10-31T16:16:36.244Z,99899.38
2022-10-31T16:19:05.854Z,99891.25
2022-10-31T16:21:36.929Z,99900.50
2022-10-31T16:24:19.113Z,99892.97
2022-10-31T16:26:51.216Z,99900.19
2022-10-31T16:29:45.838Z,99901.16
2022-10-31T16:32:27.542Z,99897.47
2022-10-31T16:35:03.278Z,99898.75
2022-10-31T16:37:30.194Z,99896.88
2022-10-31T16:39:56.912Z,99894.97
2022-10-31T16:42:23.885Z,99899.44
2022-10-31T16:44:50.691Z,99901.88
2022-10-31T16:47:19.698Z,99901.94
2022-10-31T16:49:50.252Z,99902.94
2022-10-31T16:52:18.434Z,99894.31
2022-10-31T16:54:45.372Z,99896.69
2022-10-31T16:57:21.261Z,99898.25
2022-10-31T16:59:52.257Z,99910.91
2022-10-31T17:02:19.480Z,99911.69
2022-10-31T17:04:48.531Z,99911.75
2022-10-31T17:07:18.052Z,99912.63
2022-10-31T17:09:45.491Z,99919.84
2022-10-31T17:12:19.173Z,99917.22
2022-10-31T17:14:50.810Z,99909.81
2022-10-31T17:17:17.896Z,99918.78
2022-10-31T17:19:45.109Z,99911.75
2022-10-31T17:22:13.389Z,99910.72
2022-10-31T17:24:40.247Z,99909.94
2022-10-31T17:27:07.273Z,99914.63
2022-10-31T17:29:34.902Z,99911.78
2022-10-31T17:32:02.313Z,99903.66
2022-10-31T17:34:30.033Z,99908.06
2022-10-31T17:36:57.957Z,99903.41
2022-10-31T17:39:25.086Z,99903.88
2022-10-31T17:41:53.095Z,99904.66
2022-10-31T17:44:20.271Z,99902.56
2022-10-31T17:46:47.314Z,99906.75
2022-10-31T17:49:14.843Z,99903.34
2022-10-31T17:51:41.654Z,99902.56
2022-10-31T17:54:08.678Z,99902.66
2022-10-31T17:56:36.090Z,99903.75
2022-10-31T17:59:03.331Z,99904.28
2022-10-31T18:01:30.825Z,99906.38
2022-10-31T18:03:57.889Z,99906.63
2022-10-31T18:06:25.034Z,99903.97
2022-10-31T18:08:52.107Z,99902.94
2022-10-31T18:11:21.522Z,99898.47
2022-10-31T18:13:48.829Z,99899.28
2022-10-31T18:16:18.014Z,99899.50
2022-10-31T18:18:45.068Z,99895.31
2022-10-31T18:21:12.281Z,99900.31
2022-10-31T18:23:40.186Z,99894.22
2022-10-31T18:26:08.156Z,99889.50
2022-10-31T18:28:37.208Z,99890.81
2022-10-31T18:31:04.538Z,99892.94
2022-10-31T18:33:31.706Z,99891.06
2022-10-31T18:36:05.699Z,99889.50
2022-10-31T18:38:33.833Z,99894.69
2022-10-31T18:41:00.939Z,99883.19
2022-10-31T18:43:27.909Z,99878.13
2022-10-31T18:45:58.197Z,99882.13
2022-10-31T18:48:27.588Z,99881.88
2022-10-31T18:50:56.055Z,99880.28
2022-10-31T18:53:23.551Z,99880.38
2022-10-31T18:55:51.108Z,99872.75
2022-10-31T18:58:18.527Z,99878.81
2022-10-31T19:00:48.309Z,99883.28
2022-10-31T19:03:15.460Z,99868.56
2022-10-31T19:05:42.681Z,99873.56
2022-10-31T19:08:09.878Z,99872.47
2022-10-31T19:10:40.653Z,99875.88
2022-10-31T19:13:09.552Z,99875.88
2022-10-31T19:15:37.529Z,99869.06
2022-10-31T19:18:04.840Z,99866.94
2022-10-31T19:20:32.890Z,99869.56
2022-10-31T19:23:00.946Z,99879.03
2022-10-31T19:25:28.841Z,99879.03
2022-10-31T19:27:56.603Z,99874.00
2022-10-31T19:30:23.762Z,99862.66
2022-10-31T19:32:55.435Z,99858.22
2022-10-31T19:35:22.682Z,99849.88
2022-10-31T19:37:50.049Z,99858.53
2022-10-31T19:40:17.340Z,99853.78
2022-10-31T19:42:44.884Z,99850.66
2022-10-31T19:45:12.169Z,99843.75
2022-10-31T19:47:39.544Z,99855.06
2022-10-31T19:50:07.204Z,99856.63
2022-10-31T19:52:35.507Z,99857.47
2022-10-31T19:55:03.966Z,99854.06
2022-10-31T19:58:11.104Z,99855.63
2022-10-31T20:00:21.977Z,99849.88
2022-10-31T20:02:49.064Z,99854.63
2022-10-31T20:05:15.874Z,99865.16
2022-10-31T20:07:42.693Z,99854.63
2022-10-31T20:10:10.783Z,99855.19
2022-10-31T20:12:37.956Z,99861.53
2022-10-31T20:15:05.583Z,99862.00
2022-10-31T20:17:33.934Z,99862.28
2022-10-31T20:20:01.341Z,99859.16
2022-10-31T20:22:28.788Z,99857.09
2022-10-31T20:24:56.014Z,99860.28
2022-10-31T20:27:25.558Z,99856.59
2022-10-31T20:29:53.119Z,99855.03
2022-10-31T20:32:21.413Z,99846.16
2022-10-31T20:37:21.299Z,99850.34
2022-10-31T20:39:51.368Z,99844.00
2022-10-31T20:42:21.527Z,99847.47
2022-10-31T20:44:48.966Z,99856.66
2022-10-31T20:47:17.761Z,99855.59
2022-10-31T20:49:46.084Z,99848.47
2022-10-31T20:52:13.257Z,99849.78
2022-10-31T20:54:40.508Z,99853.97
2022-10-31T20:57:08.075Z,99850.03
2022-10-31T20:59:35.028Z,99847.19
2022-10-31T21:02:03.096Z,99846.41
2022-10-31T21:04:30.247Z,99843.06
2022-10-31T21:06:57.341Z,99843.56
2022-10-31T21:09:24.309Z,99849.34
2022-10-31T21:11:51.237Z,99841.44
2022-10-31T21:14:19.200Z,99856.44
2022-10-31T21:16:46.476Z,99847.47
2022-10-31T21:19:13.367Z,99846.69
2022-10-31T21:21:40.320Z,99854.59
2022-10-31T21:24:12.755Z,99841.94
2022-10-31T21:26:42.970Z,99840.94
2022-10-31T21:29:11.227Z,99840.16
2022-10-31T21:31:39.075Z,99839.84
2022-10-31T21:34:07.246Z,99835.13
2022-10-31T21:36:34.620Z,99833.25
2022-10-31T21:39:01.981Z,99831.16
2022-10-31T21:41:29.041Z,99823.75
2022-10-31T21:43:56.089Z,99815.91
2022-10-31T21:46:26.257Z,99814.06
2022-10-31T21:48:53.670Z,99813.00
2022-10-31T21:51:27.269Z,99812.22
2022-10-31T21:53:54.713Z,99813.28
2022-10-31T21:56:22.879Z,99809.88
2022-10-31T21:58:51.171Z,99802.00
2022-10-31T22:01:18.639Z,99803.56
2022-10-31T22:03:45.699Z,99798.81
2022-10-31T22:06:13.691Z,99792.47
2022-10-31T22:08:40.850Z,99801.91
2022-10-31T22:11:13.901Z,99794.88
2022-10-31T22:13:42.314Z,99791.19
2022-10-31T22:16:12.101Z,99787.03
2022-10-31T22:18:40.325Z,99797.56
2022-10-31T22:21:12.764Z,99793.88
2022-10-31T22:23:40.612Z,99780.75
2022-10-31T22:26:10.794Z,99793.88
2022-10-31T22:28:37.662Z,99789.66
2022-10-31T22:31:09.673Z,99787.84
2022-10-31T22:33:37.132Z,99786.47
2022-10-31T22:36:10.318Z,99796.22
2022-10-31T22:38:38.714Z,99791.31
2022-10-31T22:41:07.294Z,99788.63
2022-10-31T22:43:34.404Z,99797.56
2022-10-31T22:46:03.232Z,99788.41
2022-10-31T22:48:31.914Z,99780.53
2022-10-31T22:51:12.917Z,99783.94
2022-10-31T22:53:40.656Z,99775.75
2022-10-31T22:56:09.495Z,99780.53
2022-10-31T22:58:37.260Z,99778.38
2022-10-31T23:01:19.777Z,99769.50
2022-10-31T23:03:47.971Z,99767.06
2022-10-31T23:06:17.685Z,99774.75
2022-10-31T23:08:45.214Z,99771.84
2022-10-31T23:11:27.526Z,99776.03
2022-10-31T23:13:56.456Z,99773.13
2022-10-31T23:16:23.275Z,99767.94
2022-10-31T23:18:50.659Z,99766.59
2022-10-31T23:21:17.738Z,99762.13
2022-10-31T23:23:45.286Z,99763.44
2022-10-31T23:26:12.094Z,99764.78
2022-10-31T23:28:39.514Z,99766.84
2022-10-31T23:31:06.458Z,99760.59
2022-10-31T23:33:33.261Z,99760.03
2022-10-31T23:35:59.995Z,99760.81
2022-10-31T23:38:26.776Z,99754.28
2022-10-31T23:40:53.599Z,99756.34
2022-10-31T23:43:20.413Z,99757.19
2022-10-31T23:45:47.267Z,99757.19
2022-10-31T23:48:14.138Z,99749.34
2022-10-31T23:50:40.956Z,99749.88
2022-10-31T23:53:07.756Z,99743.31
2022-10-31T23:55:34.568Z,99746.16
2022-10-31T23:58:01.611Z,99739.34
